Time;durP1;ratioP1;P1;durP2;ratioP2;P2;SDS_P1;SDS_P2;PMS_P1;PMS_P2;Temp;Humidity;BMP_temperature;BMP_pressure;BME280_temperature;BME280_humidity;BME280_pressure;Samples;Min_cycle;Max_cycle;Signal;HPM_P1;HPM_P2
2023/05/02 00:01:39;;;;;;;;;14.50;11.50;;;;;13.31;66.59;101455.53;5076339;28;45651;-76
2023/05/02 00:04:04;;;;;;;;;9.00;8.00;;;;;13.29;66.61;101443.41;5076328;27;45598;-76
2023/05/02 00:09:52;;;;;;;;;10.25;8.50;;;;;13.33;66.65;101440.44;5076026;28;45557;-76
2023/05/02 00:12:17;;;;;;;;;10.25;9.75;;;;;13.35;66.74;101442.97;5076344;27;45454;-76
2023/05/02 00:14:43;;;;;;;;;11.00;10.75;;;;;13.33;66.94;101434.38;5076139;27;46877;-76
2023/05/02 00:17:16;;;;;;;;;7.25;7.25;;;;;13.29;66.98;101444.25;5076138;28;45794;-75
2023/05/02 00:19:41;;;;;;;;;9.00;8.50;;;;;13.26;67.27;101446.25;5076205;27;45609;-75
2023/05/02 00:22:07;;;;;;;;;9.75;8.75;;;;;13.26;67.21;101439.22;5075911;28;45671;-75
2023/05/02 00:24:32;;;;;;;;;7.00;6.25;;;;;13.28;67.25;101437.28;5075685;27;46613;-74
2023/05/02 00:26:57;;;;;;;;;10.00;9.75;;;;;13.31;67.36;101444.16;5074365;28;46205;-75
2023/05/02 00:29:23;;;;;;;;;10.00;9.00;;;;;13.26;66.99;101436.56;5075949;27;45549;-76
2023/05/02 00:31:48;;;;;;;;;9.75;9.50;;;;;13.22;67.36;101429.00;5076186;27;45780;-76
2023/05/02 00:34:14;;;;;;;;;9.00;8.75;;;;;13.20;67.51;101429.09;5075968;27;46367;-75
2023/05/02 00:40:02;;;;;;;;;12.50;11.25;;;;;13.12;67.68;101423.50;5075512;28;45776;-75
2023/05/02 00:42:30;;;;;;;;;12.00;10.25;;;;;13.14;67.93;101428.66;5075870;27;45511;-75
2023/05/02 00:44:56;;;;;;;;;14.50;10.75;;;;;13.18;67.93;101425.72;5075678;28;45685;-76
2023/05/02 00:47:22;;;;;;;;;12.75;10.00;;;;;13.22;67.58;101429.00;5075541;28;45726;-75
2023/05/02 00:49:49;;;;;;;;;12.00;11.00;;;;;13.21;67.74;101440.47;5075625;27;45702;-75
2023/05/02 00:55:37;;;;;;;;;10.50;10.50;;;;;13.06;68.19;101431.81;5075135;28;45646;-75
2023/05/02 00:58:05;;;;;;;;;16.00;14.25;;;;;13.04;68.27;101444.22;5075383;27;46143;-75
2023/05/02 01:00:50;;;;;;;;;14.00;12.25;;;;;13.02;68.39;101441.69;5075510;27;45916;-76
2023/05/02 01:03:31;;;;;;;;;15.25;13.50;;;;;12.99;68.52;101431.38;5075630;27;45516;-76
2023/05/02 01:06:34;;;;;;;;;9.50;9.00;;;;;12.97;68.55;101445.56;5075244;27;46491;-74
2023/05/02 01:09:09;;;;;;;;;10.25;10.00;;;;;12.97;68.43;101443.78;5075277;28;46276;-75
2023/05/02 01:11:43;;;;;;;;;11.75;9.50;;;;;12.95;68.36;101437.81;5075320;27;45828;-76
2023/05/02 01:14:11;;;;;;;;;13.00;11.25;;;;;12.92;69.03;101440.63;5075540;28;45678;-75
2023/05/02 01:16:40;;;;;;;;;14.25;11.00;;;;;12.89;69.08;101442.63;5075098;27;45658;-75
2023/05/02 01:19:11;;;;;;;;;12.50;10.25;;;;;12.87;68.97;101439.25;5074395;27;46530;-75
2023/05/02 01:21:39;;;;;;;;;14.00;13.25;;;;;12.83;69.04;101441.25;5075063;28;45697;-75
2023/05/02 01:24:11;;;;;;;;;12.00;12.00;;;;;12.83;69.13;101446.50;5074908;27;45655;-74
2023/05/02 01:26:56;;;;;;;;;15.50;11.50;;;;;12.85;69.12;101446.38;5074783;27;45545;-74
2023/05/02 01:29:22;;;;;;;;;14.25;9.75;;;;;12.81;69.58;101442.28;5075317;27;46174;-75
2023/05/02 01:31:50;;;;;;;;;12.75;10.25;;;;;12.81;69.43;101437.88;5075140;27;45691;-73
2023/05/02 01:34:18;;;;;;;;;13.25;13.00;;;;;12.80;69.58;101437.97;5075075;28;45812;-75
2023/05/02 01:36:47;;;;;;;;;12.50;12.00;;;;;12.83;69.69;101440.41;5074741;28;45636;-73
2023/05/02 01:39:18;;;;;;;;;15.75;14.00;;;;;12.77;69.79;101436.41;5074786;27;46181;-73
2023/05/02 01:41:45;;;;;;;;;17.50;13.00;;;;;12.72;69.72;101449.00;5074759;27;45611;-73
2023/05/02 01:44:12;;;;;;;;;13.50;12.00;;;;;12.69;70.12;101449.19;5075057;27;45698;-74
2023/05/02 01:46:42;;;;;;;;;15.50;11.25;;;;;12.69;70.23;101451.81;5074492;28;45846;-74
2023/05/02 01:49:08;;;;;;;;;14.75;14.00;;;;;12.66;70.18;101443.31;5090007;27;47582;-75
2023/05/02 01:51:36;;;;;;;;;14.75;12.50;;;;;12.65;70.27;101460.03;5074342;27;45529;-75
2023/05/02 01:54:04;;;;;;;;;16.00;14.00;;;;;12.59;70.09;101451.59;5074954;27;45697;-75
2023/05/02 01:56:34;;;;;;;;;13.50;13.25;;;;;12.57;70.66;101448.25;5073997;27;47683;-73
2023/05/02 01:59:01;;;;;;;;;15.50;12.75;;;;;12.55;70.36;101436.13;5074425;27;46140;-74
2023/05/02 02:01:29;;;;;;;;;14.00;11.25;;;;;12.59;70.29;101438.47;5074473;28;45655;-74
2023/05/02 02:03:56;;;;;;;;;22.00;15.00;;;;;12.61;70.39;101426.06;5074528;28;45692;-73
2023/05/02 02:06:21;;;;;;;;;12.25;12.25;;;;;12.63;70.72;101442.56;5074155;27;45690;-77
2023/05/02 02:08:48;;;;;;;;;13.75;13.00;;;;;12.60;70.65;101432.25;5074254;27;46263;-78
2023/05/02 02:11:20;;;;;;;;;15.50;13.75;;;;;12.65;70.62;101433.75;5072772;28;45654;-77
2023/05/02 02:13:49;;;;;;;;;12.25;10.50;;;;;12.65;70.38;101436.38;5074248;27;45549;-77
2023/05/02 02:16:23;;;;;;;;;13.00;8.75;;;;;12.65;70.39;101442.47;5074167;27;45625;-74
2023/05/02 02:18:50;;;;;;;;;13.50;10.00;;;;;12.67;70.36;101448.47;5089660;27;48261;-77
2023/05/02 02:21:18;;;;;;;;;21.25;14.75;;;;;12.61;70.80;101446.25;5074179;27;45577;-74
2023/05/02 02:23:47;;;;;;;;;17.75;15.00;;;;;12.63;70.78;101456.69;5074059;27;45534;-74
2023/05/02 02:26:14;;;;;;;;;20.25;14.25;;;;;12.58;70.95;101460.44;5074015;27;46396;-75
2023/05/02 02:28:39;;;;;;;;;20.25;16.50;;;;;12.60;70.87;101461.19;5073662;28;46690;-74
2023/05/02 02:31:05;;;;;;;;;19.00;14.25;;;;;12.57;71.10;101458.78;5073170;27;45570;-73
2023/05/02 02:33:31;;;;;;;;;15.75;14.25;;;;;12.59;70.81;101461.28;5074225;27;45627;-75
2023/05/02 02:43:04;;;;;;;;;16.75;14.00;;;;;12.53;71.03;101466.94;5073659;28;45580;-74
2023/05/02 02:46:14;;;;;;;;;15.75;13.50;;;;;12.49;71.04;101471.56;5073904;28;45993;-74
2023/05/02 02:48:40;;;;;;;;;14.00;13.50;;;;;12.46;71.01;101468.28;5073759;28;45969;-73
2023/05/02 02:54:54;;;;;;;;;13.00;13.00;;;;;12.42;71.36;101472.88;5073672;28;45592;-75
2023/05/02 02:57:39;;;;;;;;;21.50;15.00;;;;;12.40;71.30;101468.69;5011479;28;45813;-75
2023/05/02 03:00:15;;;;;;;;;18.50;16.50;;;;;12.35;71.55;101466.34;5010836;28;47821;-74
2023/05/02 03:02:42;;;;;;;;;12.00;7.00;;;;;12.34;71.33;101463.81;5011104;28;46239;-74
2023/05/02 03:05:10;;;;;;;;;19.50;15.75;;;;;12.35;71.40;101468.13;5011207;28;45755;-75
2023/05/02 03:10:57;;;;;;;;;19.25;17.00;;;;;12.33;71.58;101462.97;5010964;28;45949;-75
2023/05/02 03:13:22;;;;;;;;;18.75;15.00;;;;;12.28;71.49;101472.09;5011110;28;45800;-76
2023/05/02 03:15:50;;;;;;;;;18.50;16.75;;;;;12.24;71.77;101471.47;5011055;28;45704;-75
2023/05/02 03:18:15;;;;;;;;;18.75;15.75;;;;;12.20;72.16;101468.16;5011344;28;45585;-75
2023/05/02 03:20:41;;;;;;;;;20.00;15.00;;;;;12.22;71.89;101462.81;5011031;28;46427;-74
2023/05/02 03:26:41;;;;;;;;;19.50;16.75;;;;;12.19;72.06;101482.28;5001865;28;45991;-74
2023/05/02 03:29:07;;;;;;;;;24.00;20.50;;;;;12.19;72.05;101473.53;5010994;28;45743;-75
2023/05/02 03:31:32;;;;;;;;;16.50;14.75;;;;;12.17;72.27;101467.53;5010763;28;45674;-75
2023/05/02 03:33:57;;;;;;;;;18.25;14.50;;;;;12.16;72.24;101471.09;5031808;28;47085;-75
2023/05/02 03:36:23;;;;;;;;;18.00;16.75;;;;;12.15;72.34;101475.50;5073305;27;45636;-75
2023/05/02 03:42:10;;;;;;;;;19.25;16.25;;;;;12.27;72.32;101478.28;5075858;28;46257;-75
2023/05/02 03:44:35;;;;;;;;;16.00;14.50;;;;;12.28;72.16;101483.44;5078351;27;45538;-75
2023/05/02 03:47:01;;;;;;;;;22.50;17.50;;;;;12.27;72.03;101483.53;5078708;27;45488;-74
2023/05/02 03:49:27;;;;;;;;;18.00;16.75;;;;;12.20;72.21;101483.09;5078887;28;45520;-73
2023/05/02 03:51:52;;;;;;;;;20.50;19.25;;;;;12.18;72.37;101482.34;5076887;27;45629;-73
2023/05/02 03:54:18;;;;;;;;;13.00;4.50;;;;;12.16;72.36;101484.22;5076984;27;45618;-74
2023/05/02 03:56:43;;;;;;;;;19.75;15.75;;;;;12.15;72.32;101487.78;5076929;27;45600;-74
2023/05/02 03:59:09;;;;;;;;;20.00;17.75;;;;;12.13;72.61;101484.44;5076719;27;45772;-76
2023/05/02 04:01:34;;;;;;;;;22.50;19.00;;;;;12.16;72.69;101474.56;5076565;27;46083;-75
2023/05/02 04:04:00;;;;;;;;;14.75;12.50;;;;;12.21;72.42;101471.63;5076499;27;45827;-74
2023/05/02 04:06:25;;;;;;;;;20.75;19.50;;;;;12.23;72.21;101482.91;5076265;27;45807;-75
2023/05/02 04:12:14;;;;;;;;;26.25;21.00;;;;;12.27;72.31;101484.38;5075824;28;46262;-77
2023/05/02 04:14:39;;;;;;;;;21.50;19.00;;;;;12.27;72.42;101478.28;5076134;27;46558;-77
2023/05/02 04:17:05;;;;;;;;;22.25;18.00;;;;;12.28;72.20;101486.09;5076195;27;46124;-76
2023/05/02 04:19:31;;;;;;;;;26.00;19.25;;;;;12.30;72.25;101478.94;5076250;27;45768;-77
2023/05/02 04:21:56;;;;;;;;;23.50;19.00;;;;;12.32;72.39;101484.09;5075898;27;45702;-73
2023/05/02 04:27:43;;;;;;;;;23.75;19.50;;;;;12.11;72.34;101499.44;5064491;28;45869;-74
2023/05/02 04:30:09;;;;;;;;;19.00;18.25;;;;;12.04;72.58;101504.22;5076057;27;45427;-74
2023/05/02 04:32:35;;;;;;;;;17.75;15.50;;;;;11.99;72.86;101498.41;5075427;27;47079;-74
2023/05/02 04:35:01;;;;;;;;;19.25;18.00;;;;;11.94;72.98;101508.38;5075742;27;45832;-76
2023/05/02 04:37:26;;;;;;;;;29.50;22.25;;;;;11.95;73.13;101511.84;5075770;27;45573;-73
2023/05/02 04:39:51;;;;;;;;;21.25;19.25;;;;;11.95;72.83;101514.47;5075793;27;45652;-76
2023/05/02 04:42:17;;;;;;;;;17.75;17.50;;;;;11.91;73.13;101516.44;5075748;27;45594;-74
2023/05/02 04:44:42;;;;;;;;;24.75;18.00;;;;;11.89;73.17;101522.72;5075562;27;45659;-75
2023/05/02 04:47:07;;;;;;;;;23.50;19.00;;;;;11.93;73.07;101524.25;5075704;27;45718;-74
2023/05/02 04:49:33;;;;;;;;;21.00;18.00;;;;;11.91;73.29;101520.88;5075697;27;45885;-75
2023/05/02 04:51:59;;;;;;;;;20.00;18.00;;;;;11.94;73.34;101536.41;5075047;27;45647;-75
2023/05/02 04:57:46;;;;;;;;;27.50;22.25;;;;;11.84;73.25;101535.28;5075334;28;45518;-76
2023/05/02 05:00:12;;;;;;;;;25.25;17.25;;;;;11.81;73.63;101533.72;5075465;27;45693;-74
2023/05/02 05:02:38;;;;;;;;;22.00;17.00;;;;;11.81;73.50;101532.88;5075444;27;46601;-75
2023/05/02 05:05:04;;;;;;;;;25.75;22.75;;;;;11.82;73.73;101534.56;5075197;27;45998;-75
2023/05/02 05:07:30;;;;;;;;;30.00;20.00;;;;;11.83;73.45;101530.97;5075246;27;46073;-74
2023/05/02 05:09:55;;;;;;;;;28.25;23.25;;;;;11.89;73.48;101530.59;5075354;27;45601;-74
2023/05/02 05:12:21;;;;;;;;;21.00;18.00;;;;;11.89;73.70;101539.31;5090642;27;46501;-75
2023/05/02 05:14:46;;;;;;;;;27.00;23.75;;;;;11.90;73.61;101537.53;5075245;27;45612;-74
2023/05/02 05:17:11;;;;;;;;;24.75;20.25;;;;;11.85;73.57;101550.97;5075212;27;45603;-76
2023/05/02 05:19:37;;;;;;;;;23.50;21.25;;;;;11.85;73.78;101550.13;5075147;27;45525;-74
2023/05/02 05:22:02;;;;;;;;;24.75;20.25;;;;;11.89;73.61;101560.34;5074782;28;46244;-75
2023/05/02 05:27:51;;;;;;;;;24.50;19.50;;;;;11.70;73.93;101565.00;5073458;28;45687;-75
2023/05/02 05:30:16;;;;;;;;;25.00;21.50;;;;;11.70;74.03;101565.84;5075107;27;45473;-75
2023/05/02 05:32:42;;;;;;;;;22.50;19.75;;;;;11.67;73.93;101568.63;5074940;27;45535;-74
2023/05/02 05:35:13;;;;;;;;;28.75;24.00;;;;;11.66;74.13;101579.25;5074553;27;46076;-75
2023/05/02 05:37:39;;;;;;;;;27.50;19.50;;;;;11.61;74.35;101574.25;5074713;28;45974;-76
2023/05/02 05:43:27;;;;;;;;;24.25;22.00;;;;;11.65;74.41;101582.81;5074472;28;46044;-74
2023/05/02 05:45:53;;;;;;;;;23.25;19.75;;;;;11.65;74.38;101591.53;5072481;28;47648;-75
2023/05/02 05:48:19;;;;;;;;;26.75;24.75;;;;;11.70;74.19;101593.88;5074400;27;45665;-73
2023/05/02 05:50:44;;;;;;;;;27.50;21.75;;;;;11.74;74.27;101592.78;5074775;27;45450;-73
2023/05/02 05:53:10;;;;;;;;;26.50;22.25;;;;;11.82;73.88;101597.59;5074382;27;46302;-75
2023/05/02 05:55:37;;;;;;;;;26.50;22.25;;;;;11.84;74.17;101600.94;5073963;27;45753;-75
2023/05/02 05:58:03;;;;;;;;;27.00;22.50;;;;;11.85;73.93;101590.34;5074184;27;45540;-77
2023/05/02 06:00:28;;;;;;;;;25.25;22.50;;;;;11.87;74.05;101599.00;5073838;27;45649;-77
2023/05/02 06:02:54;;;;;;;;;27.25;22.50;;;;;11.93;73.94;101603.03;5073879;27;47156;-76
2023/05/02 06:05:19;;;;;;;;;24.00;19.50;;;;;11.96;73.99;101603.69;5073842;27;45746;-76
2023/05/02 06:07:45;;;;;;;;;31.00;24.75;;;;;11.94;73.70;101607.31;5089625;27;45971;-77
2023/05/02 06:13:32;;;;;;;;;29.00;23.00;;;;;11.93;73.99;101610.91;5074034;28;45614;-74
2023/05/02 06:16:01;;;;;;;;;32.25;24.50;;;;;11.90;74.14;101619.78;5073999;27;46085;-76
2023/05/02 06:18:26;;;;;;;;;39.25;29.50;;;;;11.90;73.94;101626.81;5074028;27;45823;-76
2023/05/02 06:20:52;;;;;;;;;35.25;29.25;;;;;11.90;74.16;101622.41;5074124;27;45663;-74
2023/05/02 06:23:17;;;;;;;;;32.50;25.75;;;;;11.97;73.96;101622.91;5073985;27;47089;-76
2023/05/02 06:29:04;;;;;;;;;34.75;30.25;;;;;11.99;73.92;101626.25;5062315;28;45933;-74
2023/05/02 06:31:30;;;;;;;;;23.25;23.25;;;;;12.02;73.90;101626.09;5073960;27;45867;-77
2023/05/02 06:33:55;;;;;;;;;35.00;28.00;;;;;12.06;74.04;101636.31;5073790;27;46252;-75
2023/05/02 06:36:21;;;;;;;;;32.25;28.25;;;;;12.13;73.86;101640.28;5089506;27;45765;-76
2023/05/02 06:38:46;;;;;;;;;33.00;27.00;;;;;12.17;73.96;101641.75;5073985;27;45708;-75
2023/05/02 06:41:15;;;;;;;;;30.50;26.50;;;;;12.24;73.68;101633.50;5074115;28;45593;-76
2023/05/02 06:43:41;;;;;;;;;29.75;26.75;;;;;12.28;73.55;101641.09;5073966;27;45783;-76
2023/05/02 06:46:07;;;;;;;;;45.50;30.75;;;;;12.36;73.75;101643.28;5073820;27;46013;-76
2023/05/02 06:48:34;;;;;;;;;35.00;29.75;;;;;12.38;73.32;101646.63;5072398;27;45610;-77
2023/05/02 06:51:00;;;;;;;;;31.50;29.50;;;;;12.36;73.27;101646.72;5073728;27;45624;-74
2023/05/02 06:53:25;;;;;;;;;33.00;27.75;;;;;12.36;73.37;101645.91;5073893;27;45541;-76
2023/05/02 06:59:12;;;;;;;;;36.25;29.50;;;;;12.44;73.52;101651.50;5073664;28;45491;-76
2023/05/02 07:01:38;;;;;;;;;32.25;26.50;;;;;12.50;73.21;101649.34;5073454;27;45454;-76
2023/05/02 07:04:04;;;;;;;;;38.25;27.25;;;;;12.55;73.07;101647.28;5073608;27;45645;-76
2023/05/02 07:06:30;;;;;;;;;37.00;29.00;;;;;12.60;72.83;101650.47;5073672;27;46094;-76
2023/05/02 07:08:56;;;;;;;;;27.75;24.50;;;;;12.62;72.99;101655.63;5073636;27;45678;-78
2023/05/02 07:11:23;;;;;;;;;34.75;28.75;;;;;12.65;73.09;101658.06;5073302;27;45805;-75
2023/05/02 07:13:48;;;;;;;;;34.25;26.25;;;;;12.71;72.63;101656.81;5073475;28;45951;-76
2023/05/02 07:16:14;;;;;;;;;39.25;30.25;;;;;12.77;72.83;101656.44;5074990;27;46184;-76
2023/05/02 07:18:41;;;;;;;;;35.25;28.00;;;;;12.80;72.63;101654.44;5076980;28;45685;-76
2023/05/02 07:21:07;;;;;;;;;37.00;31.00;;;;;12.83;72.45;101656.06;5076765;27;45525;-77
2023/05/02 07:23:32;;;;;;;;;41.00;31.75;;;;;12.86;72.56;101648.81;5076966;27;45591;-75
2023/05/02 07:29:19;;;;;;;;;32.50;28.00;;;;;12.95;72.25;101650.03;5074083;28;45487;-76
2023/05/02 07:31:45;;;;;;;;;31.50;28.00;;;;;12.99;72.15;101649.72;5075455;28;45607;-74
2023/05/02 07:34:10;;;;;;;;;28.25;24.75;;;;;13.04;71.87;101654.69;5076913;27;45767;-73
2023/05/02 07:36:36;;;;;;;;;32.00;24.00;;;;;13.11;72.00;101655.13;5076715;28;45606;-74
2023/05/02 07:39:01;;;;;;;;;30.75;25.75;;;;;13.17;71.63;101658.22;5076744;27;45520;-75
2023/05/02 07:44:48;;;;;;;;;31.75;26.75;;;;;13.29;71.13;101664.47;5076359;28;46157;-77
2023/05/02 07:47:13;;;;;;;;;43.00;30.75;;;;;13.34;70.99;101663.22;5076484;27;45617;-75
2023/05/02 07:49:39;;;;;;;;;39.25;28.50;;;;;13.41;71.40;101671.56;5076627;27;45599;-76
2023/05/02 07:52:04;;;;;;;;;35.25;30.00;;;;;13.46;71.08;101672.09;5076679;27;45757;-77
2023/05/02 07:54:30;;;;;;;;;37.25;31.75;;;;;13.52;71.00;101674.34;5076343;27;45539;-77
2023/05/02 07:56:57;;;;;;;;;38.25;33.25;;;;;13.53;70.68;101669.91;5076434;27;46338;-75
2023/05/02 07:59:22;;;;;;;;;36.50;32.25;;;;;13.58;70.56;101673.09;5076330;27;45504;-77
2023/05/02 08:01:48;;;;;;;;;40.75;34.50;;;;;13.63;70.40;101674.47;5076627;27;45698;-78
2023/05/02 08:04:13;;;;;;;;;42.75;35.50;;;;;13.68;70.08;101669.75;5076279;27;46357;-77
2023/05/02 08:06:39;;;;;;;;;39.25;31.50;;;;;13.74;69.86;101674.59;5076400;28;46214;-79
2023/05/02 08:09:05;;;;;;;;;45.75;31.50;;;;;13.82;69.81;101674.06;5076365;27;45719;-79
2023/05/02 08:14:52;;;;;;;;;38.00;30.50;;;;;13.96;69.70;101679.25;5075695;28;45528;-79
2023/05/02 08:17:17;;;;;;;;;34.75;31.50;;;;;14.02;69.40;101685.91;5076035;28;46225;-76
2023/05/02 08:19:43;;;;;;;;;41.00;32.25;;;;;14.06;68.90;101690.84;5076195;27;45537;-77
2023/05/02 08:22:08;;;;;;;;;35.00;31.25;;;;;14.11;69.25;101688.75;5076091;27;45501;-78
2023/05/02 08:24:34;;;;;;;;;41.25;33.50;;;;;14.17;68.67;101693.59;5075702;27;45489;-78
2023/05/02 08:30:21;;;;;;;;;34.00;30.25;;;;;14.28;68.77;101693.72;5065269;28;45696;-75
2023/05/02 08:32:46;;;;;;;;;34.75;30.00;;;;;14.35;68.13;101693.28;5076083;27;45528;-77
2023/05/02 08:35:12;;;;;;;;;30.75;28.00;;;;;14.39;67.83;101693.00;5075284;27;46741;-75
2023/05/02 08:37:38;;;;;;;;;38.75;34.25;;;;;14.43;68.00;101690.97;5075513;28;46077;-73
2023/05/02 08:40:04;;;;;;;;;30.50;25.50;;;;;14.50;67.54;101693.09;5075557;27;45967;-73
2023/05/02 08:42:32;;;;;;;;;25.00;22.50;;;;;14.53;67.22;101698.13;5075908;27;45680;-77
2023/05/02 08:44:57;;;;;;;;;21.25;20.50;;;;;14.56;66.98;101699.72;5075521;27;46412;-76
2023/05/02 08:47:24;;;;;;;;;20.25;16.25;;;;;14.59;66.51;101705.63;5075764;28;46561;-75
2023/05/02 08:49:52;;;;;;;;;22.25;20.25;;;;;14.66;66.55;101700.75;5075664;28;45765;-75
2023/05/02 08:52:19;;;;;;;;;14.00;11.25;;;;;14.70;66.48;101702.22;5075747;28;45506;-76
2023/05/02 08:54:45;;;;;;;;;11.25;7.75;;;;;14.75;66.33;101696.63;5075719;27;46596;-77
2023/05/02 09:00:36;;;;;;;;;21.75;17.50;;;;;14.84;65.77;101715.31;5075059;28;45526;-74
2023/05/02 09:03:10;;;;;;;;;19.50;14.50;;;;;14.84;65.63;101711.81;5075698;27;45726;-73
2023/05/02 09:05:39;;;;;;;;;21.25;20.25;;;;;14.91;65.53;101707.75;5075049;27;45716;-75
2023/05/02 09:08:05;;;;;;;;;21.25;19.25;;;;;14.92;65.61;101710.31;5075289;28;46030;-77
2023/05/02 09:10:35;;;;;;;;;18.75;16.50;;;;;14.97;65.33;101708.19;5075125;27;45632;-78
2023/05/02 09:13:49;;;;;;;;;28.25;23.50;;;;;15.03;64.96;101715.66;5075429;27;45739;-76
2023/05/02 09:16:22;;;;;;;;;27.50;20.50;;;;;15.06;65.18;101725.97;5012820;28;45784;-77
2023/05/02 09:18:53;;;;;;;;;27.75;24.50;;;;;15.07;64.70;101722.38;5012780;28;46107;-78
2023/05/02 09:21:40;;;;;;;;;24.00;22.25;;;;;15.06;64.87;101727.81;5012748;28;45715;-78
2023/05/02 09:24:19;;;;;;;;;29.00;25.75;;;;;15.08;64.84;101734.66;5012009;28;45974;-77
2023/05/02 09:26:59;;;;;;;;;30.25;28.25;;;;;15.06;64.78;101741.00;5012349;28;45892;-74
2023/05/02 09:29:27;;;;;;;;;27.75;25.25;;;;;15.08;64.87;101736.44;5011795;28;46293;-77
2023/05/02 09:31:52;;;;;;;;;19.50;17.75;;;;;15.08;64.65;101744.34;5012383;28;45900;-77
2023/05/02 09:34:18;;;;;;;;;34.75;30.75;;;;;15.09;65.00;101757.44;5012532;28;45643;-76
2023/05/02 09:36:52;;;;;;;;;34.50;30.50;;;;;15.10;65.23;101747.75;5012529;28;46552;-78
2023/05/02 09:39:28;;;;;;;;;36.25;33.00;;;;;15.11;64.71;101755.53;5011756;28;45697;-79
2023/05/02 09:41:54;;;;;;;;;33.50;28.00;;;;;15.11;65.16;101755.53;5012163;28;45629;-76
2023/05/02 09:44:22;;;;;;;;;40.50;34.25;;;;;15.12;65.05;101764.28;5012338;28;45737;-78
2023/05/02 09:46:53;;;;;;;;;40.75;35.75;;;;;15.10;65.02;101758.31;5048661;27;47723;-76
2023/05/02 09:49:37;;;;;;;;;40.25;35.50;;;;;15.11;64.83;101765.28;5074557;27;45582;-76
2023/05/02 09:52:15;;;;;;;;;41.50;29.50;;;;;15.10;64.71;101756.50;5074617;27;45513;-74
2023/05/02 09:54:41;;;;;;;;;32.75;28.75;;;;;15.10;64.79;101759.16;5074805;27;45670;-77
2023/05/02 09:57:06;;;;;;;;;37.25;34.00;;;;;15.11;64.97;101762.63;5074261;27;45611;-78
2023/05/02 09:59:32;;;;;;;;;44.00;36.00;;;;;15.16;65.00;101759.66;5074458;27;46014;-78
2023/05/02 10:02:00;;;;;;;;;33.50;31.50;;;;;15.14;64.92;101765.03;5074486;27;45616;-79
2023/05/02 10:04:27;;;;;;;;;32.25;30.25;;;;;15.19;64.78;101762.91;5074518;27;45635;-76
2023/05/02 10:06:53;;;;;;;;;33.75;27.50;;;;;15.23;64.82;101761.72;5074378;27;46382;-78
2023/05/02 10:09:20;;;;;;;;;33.50;28.50;;;;;15.31;64.29;101759.41;5074316;27;46093;-77
2023/05/02 10:11:49;;;;;;;;;32.25;28.25;;;;;15.35;64.64;101758.22;5074184;27;45778;-78
2023/05/02 10:14:19;;;;;;;;;30.75;28.50;;;;;15.43;64.71;101761.16;5074142;27;45945;-76
2023/05/02 10:16:58;;;;;;;;;19.75;19.75;;;;;15.48;64.24;101752.88;5074293;28;46335;-76
2023/05/02 10:19:32;;;;;;;;;23.50;21.75;;;;;15.57;63.82;101762.78;5074112;27;45752;-78
2023/05/02 10:21:58;;;;;;;;;20.50;17.75;;;;;15.65;63.62;101756.97;5089544;27;45767;-79
2023/05/02 10:24:25;;;;;;;;;18.75;17.25;;;;;15.71;63.65;101754.69;5074194;27;45842;-76
2023/05/02 10:26:51;;;;;;;;;22.75;19.25;;;;;15.75;63.06;101748.25;5074008;27;46248;-74
2023/05/02 10:29:17;;;;;;;;;23.25;18.75;;;;;15.79;62.90;101754.97;5073869;27;45632;-75
2023/05/02 10:31:44;;;;;;;;;20.25;17.50;;;;;15.84;63.25;101762.56;5074033;28;45861;-76
2023/05/02 10:34:12;;;;;;;;;21.00;18.50;;;;;15.88;62.76;101756.06;5074088;27;45692;-78
2023/05/02 10:36:37;;;;;;;;;23.00;21.25;;;;;15.89;62.44;101755.13;5073932;27;46456;-79
2023/05/02 10:39:03;;;;;;;;;22.50;20.00;;;;;15.90;62.54;101756.81;5073785;27;46192;-79
2023/05/02 10:41:32;;;;;;;;;17.50;15.75;;;;;15.90;62.14;101762.09;5073754;27;46268;-77
2023/05/02 10:43:58;;;;;;;;;20.25;17.75;;;;;15.94;62.10;101758.25;5073941;27;45466;-78
2023/05/02 10:46:40;;;;;;;;;18.50;16.50;;;;;15.98;62.33;101758.91;5073792;27;45729;-78
2023/05/02 10:49:12;;;;;;;;;20.00;19.75;;;;;16.02;62.42;101755.91;5073777;27;45623;-79
2023/05/02 10:51:41;;;;;;;;;22.25;20.75;;;;;16.06;61.82;101761.78;5075787;28;45667;-78
2023/05/02 10:54:23;;;;;;;;;15.00;14.75;;;;;16.08;62.08;101763.38;5077683;27;45743;-77
2023/05/02 10:57:05;;;;;;;;;20.00;16.00;;;;;16.09;62.26;101757.09;5077462;27;46601;-76
2023/05/02 10:59:37;;;;;;;;;25.00;21.75;;;;;16.11;62.12;101755.19;5077065;27;46188;-73
2023/05/02 11:02:05;;;;;;;;;21.25;18.50;;;;;16.11;61.97;101755.19;5077394;27;45855;-76
2023/05/02 11:05:05;;;;;;;;;22.00;18.00;;;;;16.12;61.61;101758.69;5077219;27;45658;-78
2023/05/02 11:07:32;;;;;;;;;20.25;16.50;;;;;16.11;61.73;101764.91;5077104;28;46901;-73
2023/05/02 11:10:15;;;;;;;;;19.25;18.25;;;;;16.09;61.83;101757.09;5077206;27;46355;-79
2023/05/02 11:12:52;;;;;;;;;25.25;22.50;;;;;16.09;61.56;101756.25;5077065;27;45549;-78
2023/05/02 11:15:37;;;;;;;;;24.75;22.00;;;;;16.09;61.99;101758.91;5077304;28;45635;-79
2023/05/02 11:18:06;;;;;;;;;18.25;15.50;;;;;16.09;62.02;101756.25;5066010;27;46441;-77
2023/05/02 11:20:33;;;;;;;;;20.25;18.25;;;;;16.09;61.83;101754.44;5076862;27;46245;-77
2023/05/02 11:23:24;;;;;;;;;22.50;20.75;;;;;16.05;61.92;101746.88;5076793;27;45650;-77
2023/05/02 11:25:53;;;;;;;;;24.25;21.25;;;;;16.06;61.85;101743.28;5076927;27;45790;-76
2023/05/02 11:28:41;;;;;;;;;21.25;19.50;;;;;16.16;62.07;101758.31;5076614;27;45666;-75
2023/05/02 11:31:09;;;;;;;;;22.75;19.75;;;;;16.24;62.30;101763.88;5076293;28;46125;-78
2023/05/02 11:33:35;;;;;;;;;23.00;21.75;;;;;16.28;61.00;101760.03;5076871;27;45821;-76
2023/05/02 11:36:01;;;;;;;;;17.00;16.50;;;;;16.28;60.89;101762.69;5077009;27;45736;-78
2023/05/02 11:38:35;;;;;;;;;19.50;18.25;;;;;16.31;61.24;101769.53;5076754;27;45679;-76
2023/05/02 11:41:03;;;;;;;;;22.25;21.00;;;;;16.33;61.05;101759.69;5091763;27;47761;-78
2023/05/02 11:43:28;;;;;;;;;23.75;21.75;;;;;16.35;61.21;101765.72;5076623;27;45588;-79
2023/05/02 11:45:55;;;;;;;;;23.00;21.00;;;;;16.37;61.01;101766.41;5076677;27;45691;-76
2023/05/02 11:48:22;;;;;;;;;22.50;22.00;;;;;16.40;61.00;101768.84;5076387;28;46695;-75
2023/05/02 11:50:54;;;;;;;;;23.75;20.50;;;;;16.43;60.95;101755.38;5076654;28;46023;-77
2023/05/02 11:53:25;;;;;;;;;19.00;17.75;;;;;16.45;60.76;101755.25;5076584;27;45675;-78
2023/05/02 11:55:52;;;;;;;;;15.75;15.50;;;;;16.53;61.09;101766.06;5076737;27;45686;-78
2023/05/02 11:58:20;;;;;;;;;17.50;17.50;;;;;16.58;60.26;101762.09;5076372;28;45629;-78
2023/05/02 12:00:47;;;;;;;;;16.00;14.25;;;;;16.59;60.13;101766.47;5076402;27;46223;-79
2023/05/02 12:03:29;;;;;;;;;15.00;13.75;;;;;16.61;59.69;101759.28;5076103;27;45913;-76
2023/05/02 12:05:56;;;;;;;;;15.25;14.25;;;;;16.66;59.92;101761.56;5076389;28;45553;-77
2023/05/02 12:08:24;;;;;;;;;16.00;16.00;;;;;16.67;59.77;101768.53;5076089;27;45451;-78
2023/05/02 12:10:51;;;;;;;;;19.00;16.75;;;;;16.73;60.11;101760.94;5076189;27;46109;-77
2023/05/02 12:13:17;;;;;;;;;19.00;15.50;;;;;16.84;60.14;101765.41;5076330;27;45583;-77
2023/05/02 12:15:43;;;;;;;;;18.50;16.50;;;;;16.92;59.31;101760.34;5076238;27;45643;-79
2023/05/02 12:18:08;;;;;;;;;19.50;16.50;;;;;16.95;59.38;101765.38;5076091;27;46443;-78
2023/05/02 12:20:35;;;;;;;;;17.75;16.00;;;;;16.98;59.28;101778.41;5075921;27;45777;-79
2023/05/02 12:23:03;;;;;;;;;16.00;15.00;;;;;17.00;58.64;101775.63;5076094;28;45542;-79
2023/05/02 12:25:28;;;;;;;;;16.50;15.75;;;;;17.00;59.22;101773.84;5076125;28;45694;-80
2023/05/02 12:28:01;;;;;;;;;17.50;15.50;;;;;17.02;58.56;101778.97;5075642;27;46759;-78
2023/05/02 12:30:28;;;;;;;;;16.25;14.25;;;;;17.05;58.92;101784.06;5075469;27;45926;-79